Time;durP1;ratioP1;P1;durP2;ratioP2;P2;SDS_P1;SDS_P2;PMS_P1;PMS_P2;Temp;Humidity;BMP_temperature;BMP_pressure;BME280_temperature;BME280_humidity;BME280_pressure;Samples;Min_cycle;Max_cycle;Signal;HPM_P1;HPM_P2
2021/01/03 00:02:02;;;;;;;25.37;14.63;;;;;;;;;;5033224;28;20989;-56
2021/01/03 00:04:29;;;;;;;29.93;16.97;;;;;;;;;;5056501;28;20494;-56
2021/01/03 00:06:55;;;;;;;25.00;15.70;;;;;;;;;;5057675;28;20780;-59
2021/01/03 00:09:22;;;;;;;25.03;16.63;;;;;;;;;;5060546;28;20452;-57
2021/01/03 00:11:48;;;;;;;24.90;15.37;;;;;;;;;;5060536;28;20434;-57
2021/01/03 00:14:14;;;;;;;23.47;15.83;;;;;;;;;;5037522;28;20419;-57
2021/01/03 00:16:40;;;;;;;23.87;15.70;;;;;;;;;;5057464;28;20428;-57
2021/01/03 00:19:06;;;;;;;23.83;15.80;;;;;;;;;;5033553;28;20481;-57
2021/01/03 00:21:32;;;;;;;25.53;16.30;;;;;;;;;;5033336;28;20195;-58
2021/01/03 00:23:58;;;;;;;25.60;16.30;;;;;;;;;;5032329;28;20424;-58
2021/01/03 00:26:24;;;;;;;27.43;17.37;;;;;;;;;;5034400;28;20416;-57
2021/01/03 00:28:50;;;;;;;27.70;15.63;;;;;;;;;;5033900;28;20990;-58
2021/01/03 00:31:16;;;;;;;25.70;15.60;;;;;;;;;;5051458;28;20205;-57
2021/01/03 00:33:42;;;;;;;25.00;15.57;;;;;;;;;;5059946;28;20469;-57
2021/01/03 00:36:08;;;;;;;27.07;16.40;;;;;;;;;;5057699;28;20204;-58
2021/01/03 00:38:34;;;;;;;25.77;15.43;;;;;;;;;;5051159;28;20213;-57
2021/01/03 00:41:00;;;;;;;26.93;16.63;;;;;;;;;;5052908;28;20435;-57
2021/01/03 00:43:26;;;;;;;22.67;16.10;;;;;;;;;;5051857;28;20419;-57
2021/01/03 00:45:53;;;;;;;24.93;16.10;;;;;;;;;;5034451;28;20180;-57
2021/01/03 00:48:19;;;;;;;24.23;16.17;;;;;;;;;;5053514;28;20465;-57
2021/01/03 00:50:45;;;;;;;26.77;17.03;;;;;;;;;;5051941;28;20396;-57
2021/01/03 00:53:11;;;;;;;25.57;16.90;;;;;;;;;;5050640;28;20235;-57
2021/01/03 00:55:37;;;;;;;26.40;16.90;;;;;;;;;;5051790;28;20895;-57
2021/01/03 00:58:03;;;;;;;31.50;18.07;;;;;;;;;;5046856;28;20431;-57
2021/01/03 01:00:33;;;;;;;27.67;17.10;;;;;;;;;;5052167;28;20177;-57
2021/01/03 01:03:00;;;;;;;32.87;18.17;;;;;;;;;;5051079;28;20471;-57
2021/01/03 01:05:26;;;;;;;27.23;17.13;;;;;;;;;;5042764;28;20439;-57
2021/01/03 01:07:53;;;;;;;29.03;18.80;;;;;;;;;;5050574;28;20470;-57
2021/01/03 01:10:24;;;;;;;31.90;19.00;;;;;;;;;;5058231;28;20973;-58
2021/01/03 01:12:51;;;;;;;30.50;18.63;;;;;;;;;;5070604;28;20433;-57
2021/01/03 01:15:18;;;;;;;27.40;18.07;;;;;;;;;;5054079;28;20411;-57
2021/01/03 01:17:48;;;;;;;29.17;17.47;;;;;;;;;;5051160;28;20408;-57
2021/01/03 01:20:15;;;;;;;31.20;18.07;;;;;;;;;;5051540;28;20418;-57
2021/01/03 01:22:41;;;;;;;29.90;17.23;;;;;;;;;;5057189;28;20489;-57
2021/01/03 01:25:07;;;;;;;27.83;17.40;;;;;;;;;;5051037;28;20418;-57
2021/01/03 01:27:34;;;;;;;31.00;18.43;;;;;;;;;;5051534;28;20816;-58
2021/01/03 01:30:00;;;;;;;28.13;19.33;;;;;;;;;;5051139;28;20447;-59
2021/01/03 01:32:26;;;;;;;31.53;19.13;;;;;;;;;;5035622;28;20423;-57
2021/01/03 01:34:52;;;;;;;28.87;18.33;;;;;;;;;;5051697;28;20792;-57
2021/01/03 01:37:18;;;;;;;31.33;19.27;;;;;;;;;;5069924;28;20507;-58
2021/01/03 01:39:44;;;;;;;29.03;19.07;;;;;;;;;;5065719;28;20180;-60
2021/01/03 01:42:10;;;;;;;25.70;18.10;;;;;;;;;;5057930;28;20639;-57
2021/01/03 01:44:36;;;;;;;29.47;19.23;;;;;;;;;;5065093;28;20434;-57
2021/01/03 01:47:06;;;;;;;28.17;18.33;;;;;;;;;;5052446;28;20193;-59
2021/01/03 01:49:37;;;;;;;32.63;19.60;;;;;;;;;;5050924;28;20608;-57
2021/01/03 01:52:03;;;;;;;29.67;18.43;;;;;;;;;;5034925;28;20423;-57
2021/01/03 01:54:31;;;;;;;31.27;18.83;;;;;;;;;;5035394;28;20454;-58
2021/01/03 01:57:06;;;;;;;28.27;18.67;;;;;;;;;;5056158;28;20511;-57
2021/01/03 01:59:38;;;;;;;29.30;17.47;;;;;;;;;;5050450;28;20533;-57
2021/01/03 02:02:11;;;;;;;34.93;20.27;;;;;;;;;;5066424;28;20915;-57
2021/01/03 02:04:50;;;;;;;27.50;18.87;;;;;;;;;;5040872;28;20958;-57
2021/01/03 02:07:23;;;;;;;32.37;20.90;;;;;;;;;;5061043;28;20415;-57
2021/01/03 02:10:03;;;;;;;30.43;19.33;;;;;;;;;;5055555;28;20459;-57
2021/01/03 02:12:31;;;;;;;30.37;19.93;;;;;;;;;;5050168;28;20486;-58
2021/01/03 02:14:58;;;;;;;27.73;18.77;;;;;;;;;;5065843;28;20418;-58
2021/01/03 02:17:24;;;;;;;29.63;19.57;;;;;;;;;;5057550;28;20422;-57
2021/01/03 02:19:51;;;;;;;33.00;19.77;;;;;;;;;;5048498;28;20423;-57
2021/01/03 02:22:27;;;;;;;34.20;20.73;;;;;;;;;;5054267;28;20780;-57
2021/01/03 02:25:01;;;;;;;31.07;21.60;;;;;;;;;;5056739;28;20509;-57
2021/01/03 02:27:30;;;;;;;33.73;20.83;;;;;;;;;;5033153;28;20481;-57
2021/01/03 02:29:57;;;;;;;33.60;20.33;;;;;;;;;;5050745;28;20504;-57
2021/01/03 02:32:24;;;;;;;30.17;20.27;;;;;;;;;;5050346;28;20451;-58
2021/01/03 02:34:50;;;;;;;30.50;20.60;;;;;;;;;;5050123;28;20419;-57
2021/01/03 02:37:23;;;;;;;31.67;19.93;;;;;;;;;;5038996;28;20758;-58
2021/01/03 02:39:49;;;;;;;35.63;20.97;;;;;;;;;;5065824;28;20432;-57
2021/01/03 02:42:35;;;;;;;30.17;21.07;;;;;;;;;;5035592;28;20442;-58
2021/01/03 02:45:06;;;;;;;29.70;19.23;;;;;;;;;;5057495;28;20263;-59
2021/01/03 02:47:34;;;;;;;31.00;21.30;;;;;;;;;;5054455;28;20522;-57
2021/01/03 02:50:00;;;;;;;29.37;19.90;;;;;;;;;;5038124;28;20458;-59
2021/01/03 02:52:37;;;;;;;32.80;21.73;;;;;;;;;;5039600;28;21073;-57
2021/01/03 02:55:04;;;;;;;36.10;21.53;;;;;;;;;;5054568;28;20406;-57
2021/01/03 02:57:30;;;;;;;30.10;19.80;;;;;;;;;;5072384;28;20411;-58
2021/01/03 02:59:56;;;;;;;35.33;22.00;;;;;;;;;;5053844;28;20488;-57
2021/01/03 03:02:22;;;;;;;32.13;20.13;;;;;;;;;;5052380;28;20462;-57
2021/01/03 03:04:48;;;;;;;29.93;20.00;;;;;;;;;;5038059;28;20269;-58
2021/01/03 03:07:14;;;;;;;30.83;20.40;;;;;;;;;;5050650;28;20423;-58
2021/01/03 03:09:40;;;;;;;31.70;20.40;;;;;;;;;;5035123;28;20513;-57
2021/01/03 03:12:07;;;;;;;30.60;20.07;;;;;;;;;;5051437;28;20772;-58
2021/01/03 03:14:33;;;;;;;36.07;21.90;;;;;;;;;;5052978;28;20640;-57
2021/01/03 03:16:59;;;;;;;32.97;21.43;;;;;;;;;;5052800;28;20514;-57
2021/01/03 03:19:25;;;;;;;30.37;19.67;;;;;;;;;;5065769;28;20902;-57
2021/01/03 03:21:52;;;;;;;36.20;21.73;;;;;;;;;;5067577;28;20777;-57
2021/01/03 03:24:18;;;;;;;33.40;20.60;;;;;;;;;;5066653;28;20783;-57
2021/01/03 03:26:50;;;;;;;33.17;20.77;;;;;;;;;;5067696;28;20446;-58
2021/01/03 03:29:16;;;;;;;31.77;20.40;;;;;;;;;;5049356;28;20459;-58
2021/01/03 03:31:42;;;;;;;32.93;21.90;;;;;;;;;;5053409;28;20444;-57
2021/01/03 03:34:08;;;;;;;32.77;21.73;;;;;;;;;;5052725;28;20640;-57
2021/01/03 03:36:34;;;;;;;29.97;19.97;;;;;;;;;;5044965;28;20209;-58
2021/01/03 03:39:00;;;;;;;32.87;22.03;;;;;;;;;;5034375;28;20644;-58
2021/01/03 03:41:26;;;;;;;32.03;22.07;;;;;;;;;;5065298;28;20176;-57
2021/01/03 03:43:52;;;;;;;31.17;20.50;;;;;;;;;;5070023;28;20180;-57
2021/01/03 03:46:19;;;;;;;30.53;20.87;;;;;;;;;;5034767;28;20434;-57
2021/01/03 03:48:45;;;;;;;31.03;21.17;;;;;;;;;;5052101;28;20303;-57
2021/01/03 03:51:17;;;;;;;32.53;20.77;;;;;;;;;;5062375;28;20173;-57
2021/01/03 03:53:43;;;;;;;28.17;20.20;;;;;;;;;;5034948;28;20447;-57
2021/01/03 03:56:10;;;;;;;34.30;21.10;;;;;;;;;;5053663;28;20981;-58
2021/01/03 03:58:36;;;;;;;30.70;20.63;;;;;;;;;;5052661;28;21236;-57
2021/01/03 04:01:02;;;;;;;32.37;20.60;;;;;;;;;;5053498;28;20455;-57
2021/01/03 04:03:28;;;;;;;27.27;19.93;;;;;;;;;;5052586;28;20852;-57
2021/01/03 04:05:54;;;;;;;27.27;19.07;;;;;;;;;;5064947;28;21042;-57
2021/01/03 04:08:20;;;;;;;29.40;20.97;;;;;;;;;;5071231;28;20458;-60
2021/01/03 04:10:46;;;;;;;32.80;20.47;;;;;;;;;;5060491;28;20423;-57
2021/01/03 04:13:12;;;;;;;28.83;19.43;;;;;;;;;;5070545;28;20205;-57
2021/01/03 04:15:38;;;;;;;29.17;18.73;;;;;;;;;;5051040;28;20902;-57
2021/01/03 04:18:05;;;;;;;31.03;19.63;;;;;;;;;;5064213;28;20459;-57
2021/01/03 04:20:31;;;;;;;26.60;18.13;;;;;;;;;;5057428;28;20431;-57
2021/01/03 04:22:58;;;;;;;31.57;21.37;;;;;;;;;;5060205;28;20501;-57
2021/01/03 04:25:24;;;;;;;28.23;19.23;;;;;;;;;;5035176;28;20427;-57
2021/01/03 04:27:52;;;;;;;27.57;19.33;;;;;;;;;;5035203;28;20438;-57
2021/01/03 04:30:19;;;;;;;27.47;18.00;;;;;;;;;;5035087;28;20196;-57
2021/01/03 04:32:45;;;;;;;27.57;19.20;;;;;;;;;;5051603;28;20450;-57
2021/01/03 04:35:11;;;;;;;25.23;18.10;;;;;;;;;;5056684;28;20942;-58
2021/01/03 04:37:37;;;;;;;26.70;18.07;;;;;;;;;;5070458;28;20611;-57
2021/01/03 04:40:04;;;;;;;28.13;18.23;;;;;;;;;;5070213;28;20416;-57
2021/01/03 04:42:32;;;;;;;27.40;17.13;;;;;;;;;;5070338;28;20433;-59
2021/01/03 04:45:01;;;;;;;24.47;17.53;;;;;;;;;;5063009;28;20426;-57
2021/01/03 04:47:38;;;;;;;27.67;17.57;;;;;;;;;;5045538;28;20431;-57
2021/01/03 04:50:07;;;;;;;27.77;17.53;;;;;;;;;;5034802;28;20498;-57
2021/01/03 04:52:36;;;;;;;24.57;16.83;;;;;;;;;;5047809;28;20557;-57
2021/01/03 04:55:22;;;;;;;25.17;16.93;;;;;;;;;;5053111;28;20849;-57
2021/01/03 04:58:08;;;;;;;24.83;16.50;;;;;;;;;;5067219;28;20416;-57
2021/01/03 05:00:36;;;;;;;24.87;17.10;;;;;;;;;;5047329;28;20423;-57
2021/01/03 05:03:05;;;;;;;24.73;17.30;;;;;;;;;;5053487;28;20467;-57
2021/01/03 05:05:35;;;;;;;22.33;16.17;;;;;;;;;;5059748;28;20515;-58
2021/01/03 05:08:01;;;;;;;22.40;15.00;;;;;;;;;;5032357;28;20473;-57
2021/01/03 05:10:28;;;;;;;23.03;15.83;;;;;;;;;;5033046;28;20780;-57
2021/01/03 05:13:03;;;;;;;26.27;15.93;;;;;;;;;;5050993;28;20180;-57
2021/01/03 05:15:31;;;;;;;26.50;16.37;;;;;;;;;;5036584;28;20484;-57
2021/01/03 05:17:57;;;;;;;23.23;16.50;;;;;;;;;;5069371;28;20406;-57
2021/01/03 05:20:23;;;;;;;24.17;16.13;;;;;;;;;;5065692;28;20925;-57
2021/01/03 05:22:49;;;;;;;24.50;17.50;;;;;;;;;;5059788;28;20427;-57
2021/01/03 05:25:17;;;;;;;27.67;15.50;;;;;;;;;;5049496;28;20439;-58
2021/01/03 05:27:43;;;;;;;24.43;16.93;;;;;;;;;;5060633;28;20762;-57
2021/01/03 05:30:14;;;;;;;24.27;16.37;;;;;;;;;;5051734;28;20950;-57
2021/01/03 05:32:41;;;;;;;26.90;18.70;;;;;;;;;;5064001;28;20423;-58
2021/01/03 05:35:17;;;;;;;22.10;16.23;;;;;;;;;;5052032;28;20432;-58
2021/01/03 05:37:43;;;;;;;20.30;15.20;;;;;;;;;;5060260;28;20549;-57
2021/01/03 05:40:26;;;;;;;24.40;16.43;;;;;;;;;;5052528;28;20419;-57
2021/01/03 05:43:10;;;;;;;23.60;17.00;;;;;;;;;;5066400;28;20462;-58
2021/01/03 05:45:41;;;;;;;24.07;16.37;;;;;;;;;;5056020;28;20432;-60
2021/01/03 05:48:07;;;;;;;21.80;16.00;;;;;;;;;;5050878;28;20462;-57
2021/01/03 05:50:37;;;;;;;23.90;16.77;;;;;;;;;;5037783;28;20419;-57
2021/01/03 05:53:09;;;;;;;24.07;16.57;;;;;;;;;;5031972;28;20424;-57
2021/01/03 05:55:36;;;;;;;24.80;17.77;;;;;;;;;;5055154;28;20958;-57
2021/01/03 05:58:06;;;;;;;25.23;17.77;;;;;;;;;;5050335;28;20435;-59
2021/01/03 06:00:32;;;;;;;26.43;17.70;;;;;;;;;;5055888;28;20423;-57
2021/01/03 06:03:13;;;;;;;22.07;15.60;;;;;;;;;;5044349;28;20466;-57
2021/01/03 06:05:43;;;;;;;24.03;16.77;;;;;;;;;;5056234;28;20419;-57
2021/01/03 06:08:17;;;;;;;24.87;16.97;;;;;;;;;;5064287;28;20968;-57
2021/01/03 06:10:43;;;;;;;23.33;16.20;;;;;;;;;;5064395;28;20423;-57
2021/01/03 06:13:10;;;;;;;25.37;17.00;;;;;;;;;;5057073;28;20415;-57
2021/01/03 06:16:03;;;;;;;25.40;16.77;;;;;;;;;;5075180;28;20886;-58
2021/01/03 06:18:48;;;;;;;24.43;16.77;;;;;;;;;;5038731;28;20423;-57
2021/01/03 06:21:22;;;;;;;24.77;16.83;;;;;;;;;;5067851;28;20418;-57
2021/01/03 06:24:07;;;;;;;25.07;16.10;;;;;;;;;;5076298;28;20383;-57
2021/01/03 06:26:38;;;;;;;24.37;16.37;;;;;;;;;;5047180;28;20837;-58
2021/01/03 06:29:09;;;;;;;26.20;16.83;;;;;;;;;;5039136;28;20486;-57
2021/01/03 06:31:35;;;;;;;20.90;14.80;;;;;;;;;;5058275;28;20442;-57
2021/01/03 06:34:09;;;;;;;22.10;15.70;;;;;;;;;;5070805;28;20429;-58
2021/01/03 06:36:44;;;;;;;24.60;15.33;;;;;;;;;;5069343;28;20172;-57
2021/01/03 06:39:22;;;;;;;19.87;14.13;;;;;;;;;;5073477;28;20437;-58
2021/01/03 06:41:48;;;;;;;20.40;13.67;;;;;;;;;;5075480;28;20787;-57
2021/01/03 06:44:20;;;;;;;20.40;14.33;;;;;;;;;;5064199;28;20438;-57
2021/01/03 06:47:05;;;;;;;20.60;13.87;;;;;;;;;;5067558;28;20571;-57
2021/01/03 06:49:40;;;;;;;19.93;13.83;;;;;;;;;;5055726;28;20454;-57
2021/01/03 06:52:15;;;;;;;17.83;12.93;;;;;;;;;;5058327;28;20596;-59
2021/01/03 06:54:47;;;;;;;15.87;11.63;;;;;;;;;;5056455;28;20500;-57
2021/01/03 06:57:29;;;;;;;17.50;12.00;;;;;;;;;;5066916;28;20934;-57
2021/01/03 07:00:04;;;;;;;17.00;11.63;;;;;;;;;;5074361;28;21038;-57
2021/01/03 07:02:30;;;;;;;17.83;11.53;;;;;;;;;;5055615;28;20459;-57
2021/01/03 07:05:04;;;;;;;15.40;11.73;;;;;;;;;;5058338;28;20944;-57
2021/01/03 07:07:30;;;;;;;12.90;10.37;;;;;;;;;;5071304;28;20414;-57
2021/01/03 07:10:00;;;;;;;13.93;9.87;;;;;;;;;;5060494;28;20457;-57
2021/01/03 07:12:46;;;;;;;15.40;11.13;;;;;;;;;;5053870;28;20814;-57
2021/01/03 07:15:35;;;;;;;14.03;10.80;;;;;;;;;;5037190;28;20427;-57
2021/01/03 07:18:01;;;;;;;12.37;9.20;;;;;;;;;;5035962;28;20420;-57
2021/01/03 07:20:34;;;;;;;13.73;9.50;;;;;;;;;;5042329;28;20431;-59
2021/01/03 07:23:07;;;;;;;11.83;9.27;;;;;;;;;;5056699;28;20683;-57
2021/01/03 07:25:52;;;;;;;13.43;9.63;;;;;;;;;;5053775;28;20932;-57
2021/01/03 07:28:19;;;;;;;11.73;9.53;;;;;;;;;;5038140;28;21022;-58
2021/01/03 07:30:58;;;;;;;10.80;8.20;;;;;;;;;;5070872;28;20442;-56
2021/01/03 07:33:43;;;;;;;12.27;8.97;;;;;;;;;;5052817;28;20811;-58
2021/01/03 07:36:20;;;;;;;13.90;9.27;;;;;;;;;;5036265;28;20433;-58
2021/01/03 07:39:05;;;;;;;12.77;9.00;;;;;;;;;;5050370;28;20414;-57
2021/01/03 07:41:31;;;;;;;12.03;8.80;;;;;;;;;;5033977;28;20499;-57
2021/01/03 07:43:58;;;;;;;13.70;8.83;;;;;;;;;;5054572;28;20555;-57
2021/01/03 07:46:47;;;;;;;10.83;8.60;;;;;;;;;;5043865;28;20706;-57
2021/01/03 07:49:32;;;;;;;13.37;9.23;;;;;;;;;;5052113;28;20584;-58
2021/01/03 07:51:59;;;;;;;11.70;8.37;;;;;;;;;;5050716;28;20414;-58
2021/01/03 07:54:25;;;;;;;12.13;8.63;;;;;;;;;;5057268;28;20424;-57
2021/01/03 07:56:51;;;;;;;10.63;8.73;;;;;;;;;;5065117;28;20424;-57
2021/01/03 07:59:17;;;;;;;12.23;8.07;;;;;;;;;;5051567;28;20455;-57
2021/01/03 08:01:46;;;;;;;10.87;8.63;;;;;;;;;;5052762;28;20434;-58
2021/01/03 08:04:15;;;;;;;11.10;8.60;;;;;;;;;;5068004;28;20484;-58
2021/01/03 08:06:41;;;;;;;11.40;8.07;;;;;;;;;;5055584;28;20439;-58
2021/01/03 08:09:07;;;;;;;10.87;8.67;;;;;;;;;;5064027;28;20801;-57
2021/01/03 08:11:35;;;;;;;10.83;8.23;;;;;;;;;;5055922;28;20181;-57
2021/01/03 08:14:03;;;;;;;10.80;8.60;;;;;;;;;;5033464;28;20183;-58
2021/01/03 08:16:30;;;;;;;9.30;7.80;;;;;;;;;;5052977;28;20757;-57
2021/01/03 08:19:05;;;;;;;10.73;7.50;;;;;;;;;;5067455;28;20438;-57
2021/01/03 08:21:54;;;;;;;9.00;7.07;;;;;;;;;;5069515;28;20458;-57
2021/01/03 08:24:20;;;;;;;12.53;8.07;;;;;;;;;;5050839;28;20831;-57
2021/01/03 08:27:03;;;;;;;10.40;8.00;;;;;;;;;;5064277;28;20788;-58
2021/01/03 08:29:46;;;;;;;10.00;7.17;;;;;;;;;;5032930;28;20844;-57
2021/01/03 08:32:24;;;;;;;10.90;7.37;;;;;;;;;;5050602;28;20438;-58
2021/01/03 08:34:50;;;;;;;9.67;7.13;;;;;;;;;;5065239;28;20404;-57
2021/01/03 08:37:27;;;;;;;9.23;7.67;;;;;;;;;;5058288;28;20486;-57
2021/01/03 08:39:54;;;;;;;8.63;6.40;;;;;;;;;;5051755;28;20531;-57
2021/01/03 08:42:23;;;;;;;7.60;6.73;;;;;;;;;;5033252;28;20411;-57
2021/01/03 08:44:52;;;;;;;8.23;6.57;;;;;;;;;;5037232;28;20463;-58
2021/01/03 08:47:20;;;;;;;8.23;6.43;;;;;;;;;;5056890;28;20442;-57
2021/01/03 08:49:46;;;;;;;8.17;6.77;;;;;;;;;;5052025;28;20494;-58
2021/01/03 08:52:15;;;;;;;8.77;6.67;;;;;;;;;;5060212;28;20435;-59
2021/01/03 08:54:42;;;;;;;9.30;6.67;;;;;;;;;;5050553;28;20419;-58
2021/01/03 08:57:09;;;;;;;7.83;6.23;;;;;;;;;;5051065;28;20903;-57
2021/01/03 08:59:35;;;;;;;10.60;7.03;;;;;;;;;;5050907;28;20415;-57
2021/01/03 09:02:01;;;;;;;8.83;6.43;;;;;;;;;;5034878;28;20475;-58
2021/01/03 09:04:27;;;;;;;7.43;5.90;;;;;;;;;;5050392;28;20191;-57
2021/01/03 09:06:54;;;;;;;6.73;5.80;;;;;;;;;;5063555;28;20477;-57
2021/01/03 09:09:22;;;;;;;7.60;5.70;;;;;;;;;;5051723;28;20950;-57
2021/01/03 09:12:00;;;;;;;7.07;6.00;;;;;;;;;;5067899;28;20781;-57
2021/01/03 09:14:29;;;;;;;5.60;5.00;;;;;;;;;;5068131;28;20399;-57
2021/01/03 09:16:58;;;;;;;7.47;6.03;;;;;;;;;;5035565;28;20950;-57
2021/01/03 09:19:29;;;;;;;5.63;5.07;;;;;;;;;;5063885;28;20498;-58
2021/01/03 09:21:57;;;;;;;7.97;5.50;;;;;;;;;;5055228;28;20524;-57
2021/01/03 09:24:33;;;;;;;7.37;5.70;;;;;;;;;;5032130;28;20408;-58
2021/01/03 09:27:01;;;;;;;5.07;4.50;;;;;;;;;;5050282;28;20403;-58
2021/01/03 09:29:37;;;;;;;6.47;4.97;;;;;;;;;;5033069;28;20470;-57
2021/01/03 09:32:06;;;;;;;5.73;4.63;;;;;;;;;;5031879;28;20412;-57
2021/01/03 09:34:53;;;;;;;6.60;5.20;;;;;;;;;;5035609;28;20438;-57
2021/01/03 09:37:23;;;;;;;5.73;4.73;;;;;;;;;;5046346;28;20940;-57
2021/01/03 09:40:07;;;;;;;7.13;4.67;;;;;;;;;;5056791;28;20478;-60
2021/01/03 09:42:59;;;;;;;5.83;4.43;;;;;;;;;;5032718;28;20420;-57
2021/01/03 09:45:47;;;;;;;5.77;4.70;;;;;;;;;;5058272;28;20533;-57
2021/01/03 09:48:34;;;;;;;6.23;4.73;;;;;;;;;;5033577;28;20532;-58
2021/01/03 09:51:23;;;;;;;5.77;4.87;;;;;;;;;;5050688;28;20863;-57
2021/01/03 09:53:56;;;;;;;5.93;4.13;;;;;;;;;;5049453;28;20910;-59
2021/01/03 09:56:45;;;;;;;5.37;3.97;;;;;;;;;;5049748;28;20452;-58
2021/01/03 09:59:14;;;;;;;5.03;3.97;;;;;;;;;;5031587;28;20420;-57
2021/01/03 10:01:40;;;;;;;5.70;4.30;;;;;;;;;;5064445;28;20245;-58
2021/01/03 10:04:15;;;;;;;6.73;4.13;;;;;;;;;;5039550;28;20835;-57
2021/01/03 10:06:43;;;;;;;4.67;3.97;;;;;;;;;;5058988;28;20422;-56
2021/01/03 10:09:11;;;;;;;6.27;4.30;;;;;;;;;;5061593;28;20532;-56
2021/01/03 10:11:38;;;;;;;5.27;4.17;;;;;;;;;;5051098;28;20451;-56
2021/01/03 10:14:06;;;;;;;6.63;3.80;;;;;;;;;;5050658;28;20751;-59
2021/01/03 10:16:33;;;;;;;5.17;3.87;;;;;;;;;;5053747;28;20416;-59
2021/01/03 10:18:59;;;;;;;5.30;4.47;;;;;;;;;;5054030;28;20939;-57
2021/01/03 10:21:25;;;;;;;5.13;4.20;;;;;;;;;;5059454;28;20423;-57
2021/01/03 10:23:56;;;;;;;7.77;4.43;;;;;;;;;;5063788;28;20970;-57
2021/01/03 10:26:25;;;;;;;5.17;4.10;;;;;;;;;;5061156;28;20184;-58
2021/01/03 10:28:51;;;;;;;5.83;4.40;;;;;;;;;;5067176;28;20450;-56
2021/01/03 10:31:17;;;;;;;4.60;4.07;;;;;;;;;;5036096;28;20446;-56
2021/01/03 10:33:43;;;;;;;5.60;3.97;;;;;;;;;;5045381;28;20991;-57
2021/01/03 10:36:15;;;;;;;4.63;3.83;;;;;;;;;;5054190;28;21399;-57
2021/01/03 10:38:41;;;;;;;5.63;4.13;;;;;;;;;;5050305;28;20419;-57
2021/01/03 10:41:07;;;;;;;5.93;4.20;;;;;;;;;;5049519;28;20423;-59
2021/01/03 10:43:33;;;;;;;5.73;3.83;;;;;;;;;;5052400;28;20431;-58
2021/01/03 10:45:59;;;;;;;4.40;4.00;;;;;;;;;;5052430;28;20576;-58
2021/01/03 10:48:25;;;;;;;4.70;3.97;;;;;;;;;;5047060;28;20235;-60
2021/01/03 10:50:51;;;;;;;4.53;3.70;;;;;;;;;;5042217;28;20457;-57
2021/01/03 10:53:17;;;;;;;4.70;3.80;;;;;;;;;;5049987;28;20204;-58
2021/01/03 10:55:43;;;;;;;5.63;4.03;;;;;;;;;;5064861;28;20427;-61
2021/01/03 10:58:09;;;;;;;5.23;4.20;;;;;;;;;;5072999;28;20413;-57
2021/01/03 11:00:35;;;;;;;6.33;4.30;;;;;;;;;;5068382;28;20419;-57
2021/01/03 11:03:01;;;;;;;4.47;3.93;;;;;;;;;;5057075;28;20459;-57
2021/01/03 11:05:27;;;;;;;4.10;3.47;;;;;;;;;;5070684;28;20419;-58
2021/01/03 11:07:53;;;;;;;3.93;3.40;;;;;;;;;;5050520;28;20470;-61
2021/01/03 11:10:19;;;;;;;4.37;3.73;;;;;;;;;;5051133;28;20449;-59
2021/01/03 11:12:45;;;;;;;4.03;3.63;;;;;;;;;;5070464;28;20434;-61
2021/01/03 11:15:11;;;;;;;3.80;3.27;;;;;;;;;;5069539;28;20173;-60
2021/01/03 11:17:37;;;;;;;4.87;3.67;;;;;;;;;;5037803;28;20427;-60
2021/01/03 11:20:05;;;;;;;4.30;3.87;;;;;;;;;;5061290;28;20424;-56
2021/01/03 11:22:31;;;;;;;4.00;3.53;;;;;;;;;;5053386;28;20419;-59
2021/01/03 11:24:57;;;;;;;6.60;3.33;;;;;;;;;;5064890;28;20443;-59
2021/01/03 11:27:23;;;;;;;3.80;3.40;;;;;;;;;;5057695;28;20537;-59
2021/01/03 11:29:50;;;;;;;4.27;3.47;;;;;;;;;;5065983;28;20691;-59
2021/01/03 11:32:27;;;;;;;4.17;3.33;;;;;;;;;;5062766;28;20423;-59
2021/01/03 11:34:53;;;;;;;4.40;3.43;;;;;;;;;;5053730;28;20399;-59
2021/01/03 11:37:25;;;;;;;4.43;3.73;;;;;;;;;;5053442;28;20419;-59
2021/01/03 11:39:51;;;;;;;3.47;3.07;;;;;;;;;;5071569;28;20410;-59
2021/01/03 11:42:25;;;;;;;3.80;3.37;;;;;;;;;;5069145;28;20423;-59
2021/01/03 11:44:51;;;;;;;3.90;3.20;;;;;;;;;;5052792;28;20767;-59
2021/01/03 11:47:17;;;;;;;4.43;3.80;;;;;;;;;;5053399;28;20454;-59
2021/01/03 11:49:44;;;;;;;3.63;3.23;;;;;;;;;;5051727;28;20487;-60
2021/01/03 11:52:10;;;;;;;4.83;3.93;;;;;;;;;;5034883;28;20435;-59
2021/01/03 11:54:37;;;;;;;3.90;3.30;;;;;;;;;;5051359;28;20408;-59
2021/01/03 11:57:03;;;;;;;3.80;3.27;;;;;;;;;;5053933;28;20187;-58
2021/01/03 11:59:29;;;;;;;4.33;3.13;;;;;;;;;;5034021;28;20423;-57
2021/01/03 12:02:00;;;;;;;3.83;2.97;;;;;;;;;;5042038;28;20580;-58
2021/01/03 12:04:26;;;;;;;3.67;3.30;;;;;;;;;;5058945;28;20423;-59
2021/01/03 12:06:56;;;;;;;4.30;3.40;;;;;;;;;;5071298;28;20411;-59
2021/01/03 12:09:22;;;;;;;5.63;3.30;;;;;;;;;;5070210;28;20470;-58
2021/01/03 12:11:54;;;;;;;4.10;3.70;;;;;;;;;;5049142;28;20788;-59
2021/01/03 12:14:20;;;;;;;5.97;3.60;;;;;;;;;;5034844;28;20420;-58
2021/01/03 12:16:46;;;;;;;3.70;3.30;;;;;;;;;;5060818;28;20464;-59
2021/01/03 12:19:12;;;;;;;4.97;4.10;;;;;;;;;;5059081;28;20423;-59
2021/01/03 12:21:38;;;;;;;4.43;3.50;;;;;;;;;;5053010;28;20264;-58
2021/01/03 12:24:05;;;;;;;4.80;3.73;;;;;;;;;;5051285;28;20503;-59
2021/01/03 12:26:35;;;;;;;5.23;3.70;;;;;;;;;;5065496;28;20177;-59
2021/01/03 12:29:29;;;;;;;3.77;3.40;;;;;;;;;;5054593;28;20459;-60
2021/01/03 12:32:53;;;;;;;4.30;3.90;;;;;;;;;;5041883;28;20432;-59
2021/01/03 12:34:54;;;;;;;4.37;3.67;;;;;;;;;;5054743;28;20426;-59
2021/01/03 12:37:21;;;;;;;4.97;3.70;;;;;;;;;;5076421;28;20414;-59
2021/01/03 12:39:48;;;;;;;4.30;3.33;;;;;;;;;;5073266;28;20429;-59
2021/01/03 12:42:16;;;;;;;4.37;3.60;;;;;;;;;;5042053;28;20425;-60
2021/01/03 12:44:45;;;;;;;4.67;4.03;;;;;;;;;;5058033;28;20433;-60
2021/01/03 12:47:11;;;;;;;4.43;3.93;;;;;;;;;;5056410;28;20996;-60
2021/01/03 12:49:37;;;;;;;5.50;4.20;;;;;;;;;;5063983;28;20455;-57
2021/01/03 12:52:04;;;;;;;6.13;4.00;;;;;;;;;;5071744;28;20893;-57
2021/01/03 12:54:29;;;;;;;4.40;4.00;;;;;;;;;;5055069;28;20480;-58
2021/01/03 12:56:56;;;;;;;4.13;3.73;;;;;;;;;;5051086;28;20422;-58
2021/01/03 12:59:22;;;;;;;5.97;4.03;;;;;;;;;;5050193;28;20192;-58
2021/01/03 13:01:48;;;;;;;4.67;3.80;;;;;;;;;;5056969;28;20467;-58
2021/01/03 13:04:15;;;;;;;4.77;4.00;;;;;;;;;;5038416;28;20432;-60
2021/01/03 13:06:53;;;;;;;4.47;3.70;;;;;;;;;;5056805;28;20451;-60
2021/01/03 13:09:23;;;;;;;4.27;3.87;;;;;;;;;;5062335;28;20462;-59
2021/01/03 13:11:53;;;;;;;4.87;3.67;;;;;;;;;;5077990;28;20407;-59
2021/01/03 13:14:22;;;;;;;4.13;3.73;;;;;;;;;;5061624;28;20422;-58
2021/01/03 13:16:48;;;;;;;4.33;3.87;;;;;;;;;;5072035;28;20900;-59
2021/01/03 13:19:14;;;;;;;4.73;3.90;;;;;;;;;;5069086;28;20441;-59
2021/01/03 13:21:40;;;;;;;5.43;4.17;;;;;;;;;;5037406;28;20416;-59
2021/01/03 13:24:07;;;;;;;4.50;4.10;;;;;;;;;;5050245;28;20416;-59
2021/01/03 13:26:34;;;;;;;4.07;3.60;;;;;;;;;;5032250;28;20181;-59
2021/01/03 13:29:00;;;;;;;4.37;3.80;;;;;;;;;;5051335;28;20459;-59
2021/01/03 13:31:28;;;;;;;4.63;4.10;;;;;;;;;;5059812;28;20534;-59
2021/01/03 13:33:54;;;;;;;5.50;4.40;;;;;;;;;;5051184;28;20408;-59
2021/01/03 13:36:21;;;;;;;5.57;4.37;;;;;;;;;;5058808;28;20477;-59
2021/01/03 13:38:47;;;;;;;5.03;4.20;;;;;;;;;;5050439;28;20423;-59
2021/01/03 13:41:14;;;;;;;6.23;4.67;;;;;;;;;;5059528;28;20430;-59
2021/01/03 13:43:41;;;;;;;5.33;4.17;;;;;;;;;;5070770;28;20763;-59
2021/01/03 13:46:07;;;;;;;5.00;4.23;;;;;;;;;;5065319;28;20423;-59
2021/01/03 13:48:34;;;;;;;5.53;4.27;;;;;;;;;;5070580;28;20500;-59
2021/01/03 13:51:00;;;;;;;4.77;3.70;;;;;;;;;;5070157;28;20419;-59
2021/01/03 13:53:26;;;;;;;5.47;3.67;;;;;;;;;;5062973;28;20422;-59
2021/01/03 13:55:52;;;;;;;5.77;4.77;;;;;;;;;;5054649;28;20406;-60
2021/01/03 13:58:18;;;;;;;5.20;4.70;;;;;;;;;;5071205;28;20403;-59
2021/01/03 14:00:45;;;;;;;6.37;4.33;;;;;;;;;;5065996;28;20786;-59
2021/01/03 14:03:11;;;;;;;4.23;3.83;;;;;;;;;;5064914;28;20243;-59
2021/01/03 14:05:41;;;;;;;5.93;4.80;;;;;;;;;;5063659;28;20435;-59
2021/01/03 14:08:08;;;;;;;5.00;4.20;;;;;;;;;;5049853;28;20407;-60
2021/01/03 14:10:34;;;;;;;6.00;4.43;;;;;;;;;;5051257;28;20480;-59
2021/01/03 14:13:01;;;;;;;5.40;4.30;;;;;;;;;;5032289;28;20504;-59
2021/01/03 14:15:27;;;;;;;6.67;5.17;;;;;;;;;;5052765;28;20423;-59
2021/01/03 14:17:53;;;;;;;6.13;4.70;;;;;;;;;;5052233;28;20421;-59
2021/01/03 14:20:20;;;;;;;7.30;4.87;;;;;;;;;;5052274;28;20858;-59
2021/01/03 14:22:46;;;;;;;8.07;5.43;;;;;;;;;;5051581;28;20426;-59
2021/01/03 14:25:16;;;;;;;5.77;4.47;;;;;;;;;;5069072;28;20489;-60
2021/01/03 14:27:42;;;;;;;6.33;4.73;;;;;;;;;;5068247;28;20478;-62
2021/01/03 14:30:09;;;;;;;6.00;4.70;;;;;;;;;;5050347;28;20459;-59
2021/01/03 14:32:34;;;;;;;6.87;4.87;;;;;;;;;;5056564;28;20787;-59
2021/01/03 14:35:01;;;;;;;4.67;4.13;;;;;;;;;;5058025;28;20411;-58
2021/01/03 14:37:33;;;;;;;4.63;4.13;;;;;;;;;;5051031;28;20587;-59
2021/01/03 14:40:01;;;;;;;5.97;4.73;;;;;;;;;;5055128;28;20426;-59
2021/01/03 14:42:29;;;;;;;5.50;4.50;;;;;;;;;;5072040;28;20220;-59